createdAt,value
2022-08-07T00:00:52.969Z,57.31
2022-08-07T00:03:25.614Z,57.17
2022-08-07T00:05:54.268Z,57.43
2022-08-07T00:08:25.328Z,57.39
2022-08-07T00:10:57.261Z,57.45
2022-08-07T00:13:26.765Z,57.19
2022-08-07T00:15:55.751Z,57.47
2022-08-07T00:18:26.503Z,57.47
2022-08-07T00:21:01.897Z,57.48
2022-08-07T00:23:32.459Z,57.73
2022-08-07T00:26:13.064Z,57.46
2022-08-07T00:28:56.455Z,57.59
2022-08-07T00:31:37.473Z,57.58
2022-08-07T00:34:08.808Z,57.62
2022-08-07T00:36:43.374Z,57.98
2022-08-07T00:39:16.929Z,57.80
2022-08-07T00:42:01.988Z,57.82
2022-08-07T00:44:34.765Z,58.08
2022-08-07T00:47:15.950Z,57.91
2022-08-07T00:50:19.006Z,58.21
2022-08-07T00:52:42.835Z,57.92
2022-08-07T00:55:17.261Z,58.24
2022-08-07T00:57:55.390Z,58.11
2022-08-07T01:00:24.774Z,58.09
2022-08-07T01:02:52.619Z,57.91
2022-08-07T01:05:20.989Z,58.11
2022-08-07T01:07:52.757Z,58.24
2022-08-07T01:10:23.115Z,58.24
2022-08-07T01:12:54.708Z,58.35
2022-08-07T01:15:35.708Z,58.36
2022-08-07T01:18:17.689Z,58.36
2022-08-07T01:20:59.138Z,58.48
2022-08-07T01:23:36.333Z,58.59
2022-08-07T01:26:08.281Z,58.50
2022-08-07T01:28:46.217Z,58.50
2022-08-07T01:31:18.048Z,58.57
2022-08-07T01:33:55.553Z,58.68
2022-08-07T01:36:33.614Z,58.69
2022-08-07T01:39:09.890Z,58.66
2022-08-07T01:41:40.886Z,58.67
2022-08-07T01:44:27.776Z,58.87
2022-08-07T01:46:56.101Z,58.90
2022-08-07T01:49:24.153Z,58.86
2022-08-07T01:52:02.015Z,58.87
2022-08-07T01:54:37.619Z,58.90
2022-08-07T01:57:25.067Z,58.91
2022-08-07T02:00:13.285Z,59.05
2022-08-07T02:03:12.585Z,59.01
2022-08-07T02:05:47.824Z,58.89
2022-08-07T02:08:29.559Z,59.03
2022-08-07T02:11:00.337Z,59.10
2022-08-07T02:13:57.964Z,59.12
2022-08-07T02:16:28.612Z,59.32
2022-08-07T02:19:05.724Z,59.34
2022-08-07T02:21:56.620Z,59.34
2022-08-07T02:24:29.340Z,59.31
2022-08-07T02:27:02.456Z,59.33
2022-08-07T02:29:31.893Z,59.46
2022-08-07T02:32:02.545Z,59.55
2022-08-07T02:34:33.838Z,59.55
2022-08-07T02:37:08.341Z,59.63
2022-08-07T02:39:43.418Z,59.61
2022-08-07T02:42:29.857Z,59.47
2022-08-07T02:45:57.353Z,59.52
2022-08-07T02:47:55.195Z,59.69
2022-08-07T02:50:27.108Z,59.81
2022-08-07T02:53:10.893Z,59.58
2022-08-07T02:56:04.054Z,59.82
2022-08-07T02:58:35.604Z,59.80
2022-08-07T03:01:04.196Z,59.98
2022-08-07T03:03:48.942Z,59.85
2022-08-07T03:06:25.504Z,59.90
2022-08-07T03:08:54.511Z,59.81
2022-08-07T03:11:25.329Z,60.15
2022-08-07T03:13:57.517Z,60.19
2022-08-07T03:16:31.085Z,60.15
2022-08-07T03:19:00.434Z,60.13
2022-08-07T03:21:33.213Z,60.07
2022-08-07T03:24:18.256Z,60.13
2022-08-07T03:26:59.114Z,60.31
2022-08-07T03:29:49.589Z,60.19
2022-08-07T03:32:23.360Z,60.37
2022-08-07T03:35:17.043Z,60.30
2022-08-07T03:37:46.154Z,60.42
2022-08-07T03:40:22.353Z,60.51
2022-08-07T03:42:51.606Z,60.36
2022-08-07T03:45:30.636Z,60.59
2022-08-07T03:48:00.631Z,60.61
2022-08-07T03:50:29.766Z,60.74
2022-08-07T03:52:59.669Z,60.73
2022-08-07T03:55:52.744Z,60.64
2022-08-07T03:59:05.321Z,60.59
2022-08-07T04:01:11.179Z,60.70
2022-08-07T04:03:53.361Z,60.82
2022-08-07T04:06:37.740Z,60.82
2022-08-07T04:09:08.475Z,60.75
2022-08-07T04:12:27.984Z,60.95
2022-08-07T04:14:38.635Z,61.07
2022-08-07T04:17:20.080Z,61.10
2022-08-07T04:19:52.011Z,61.17
2022-08-07T04:22:28.887Z,60.96
2022-08-07T04:25:01.622Z,60.94
2022-08-07T04:27:35.840Z,61.02
2022-08-07T04:30:11.749Z,61.35
2022-08-07T04:32:44.959Z,61.10
2022-08-07T04:35:15.853Z,61.35
2022-08-07T04:38:03.106Z,61.27
2022-08-07T04:40:32.436Z,61.24
2022-08-07T04:43:03.278Z,61.40
2022-08-07T04:46:20.090Z,61.14
2022-08-07T04:49:24.814Z,61.38
2022-08-07T04:52:15.691Z,61.35
2022-08-07T04:54:58.071Z,61.44
2022-08-07T04:58:13.923Z,61.46
2022-08-07T05:00:41.011Z,61.50
2022-08-07T05:04:00.036Z,61.37
2022-08-07T05:06:43.532Z,61.37
2022-08-07T05:09:45.430Z,61.61
2022-08-07T05:12:27.141Z,61.46
2022-08-07T05:15:23.554Z,61.28
2022-08-07T05:17:57.954Z,61.41
2022-08-07T05:20:35.102Z,61.60
2022-08-07T05:23:15.332Z,61.45
2022-08-07T05:26:10.782Z,61.37
2022-08-07T05:28:35.572Z,61.57
2022-08-07T05:31:05.452Z,61.48
2022-08-07T05:33:36.995Z,61.55
2022-08-07T05:36:12.077Z,61.57
2022-08-07T05:39:01.419Z,61.62
2022-08-07T05:42:02.959Z,61.53
2022-08-07T05:44:30.942Z,61.38
2022-08-07T05:47:01.107Z,61.50
2022-08-07T05:49:40.884Z,61.55
2022-08-07T05:52:11.744Z,61.46
2022-08-07T05:54:53.438Z,61.37
2022-08-07T05:57:26.634Z,61.41
2022-08-07T06:00:01.308Z,61.56
2022-08-07T06:02:33.223Z,61.53
2022-08-07T06:05:15.773Z,61.44
2022-08-07T06:08:14.237Z,61.22
2022-08-07T06:10:32.442Z,61.32
2022-08-07T06:13:02.269Z,61.06
2022-08-07T06:15:39.352Z,61.06
2022-08-07T06:18:14.015Z,60.95
2022-08-07T06:20:51.165Z,60.97
2022-08-07T06:24:38.365Z,61.02
2022-08-07T06:26:22.041Z,60.99
2022-08-07T06:29:00.015Z,61.02
2022-08-07T06:31:47.237Z,60.72
2022-08-07T06:34:19.621Z,60.62
2022-08-07T06:36:52.194Z,60.73
2022-08-07T06:40:17.434Z,60.80
2022-08-07T06:42:26.627Z,60.67
2022-08-07T06:45:04.321Z,60.46
2022-08-07T06:47:47.912Z,60.52
2022-08-07T06:50:21.455Z,60.38
2022-08-07T06:52:55.895Z,60.40
2022-08-07T06:55:32.464Z,60.43
2022-08-07T06:58:16.678Z,60.46
2022-08-07T07:00:52.912Z,60.29
2022-08-07T07:03:37.682Z,59.99
2022-08-07T07:06:11.045Z,60.05
2022-08-07T07:08:46.830Z,60.11
2022-08-07T07:12:07.748Z,60.10
2022-08-07T07:14:05.249Z,60.03
2022-08-07T07:16:49.550Z,60.02
2022-08-07T07:19:56.552Z,59.85
2022-08-07T07:22:35.783Z,59.69
2022-08-07T07:26:31.382Z,59.71
2022-08-07T07:28:42.249Z,59.65
2022-08-07T07:31:17.379Z,59.70
2022-08-07T07:33:57.063Z,59.54
2022-08-07T07:36:32.462Z,59.58
2022-08-07T07:39:02.589Z,59.64
2022-08-07T07:42:02.348Z,59.46
2022-08-07T07:44:26.549Z,59.32
2022-08-07T07:47:01.250Z,59.37
2022-08-07T07:50:35.013Z,59.14
2022-08-07T07:52:30.988Z,59.03
2022-08-07T07:55:01.023Z,58.85
2022-08-07T07:57:50.388Z,58.74
2022-08-07T08:00:29.479Z,58.68
2022-08-07T08:03:16.639Z,58.35
2022-08-07T08:05:57.923Z,58.09
2022-08-07T08:08:36.174Z,57.90
2022-08-07T08:11:08.331Z,56.93
2022-08-07T08:13:53.136Z,56.99
2022-08-07T08:16:29.597Z,57.32
2022-08-07T08:19:17.947Z,56.95
2022-08-07T08:22:11.500Z,56.88
2022-08-07T08:25:18.963Z,56.36
2022-08-07T08:27:57.154Z,56.17
2022-08-07T08:30:34.421Z,56.07
2022-08-07T08:33:10.584Z,55.95
2022-08-07T08:35:49.870Z,55.54
2022-08-07T08:38:29.324Z,55.09
2022-08-07T08:41:08.119Z,54.62
2022-08-07T08:43:55.830Z,54.19
2022-08-07T08:46:44.936Z,53.72
2022-08-07T08:49:33.217Z,53.37
2022-08-07T08:52:16.406Z,52.78
2022-08-07T08:54:59.518Z,52.80
2022-08-07T08:57:46.710Z,51.88
2022-08-07T09:00:16.835Z,51.73
2022-08-07T09:02:57.577Z,51.07
2022-08-07T09:05:43.550Z,51.01
2022-08-07T09:08:24.248Z,49.75
2022-08-07T09:11:24.255Z,49.39
2022-08-07T09:14:19.371Z,49.07
2022-08-07T09:16:47.595Z,48.57
2022-08-07T09:19:53.525Z,48.02
2022-08-07T09:24:31.835Z,47.00
2022-08-07T09:26:13.542Z,46.77
2022-08-07T09:30:04.150Z,46.34
2022-08-07T09:31:56.324Z,45.82
2022-08-07T09:34:45.134Z,44.97
2022-08-07T09:37:53.696Z,44.31
2022-08-07T09:40:59.649Z,43.54
2022-08-07T09:44:06.001Z,43.09
2022-08-07T09:47:50.342Z,43.06
2022-08-07T09:50:18.922Z,42.32
2022-08-07T09:52:52.506Z,41.41
2022-08-07T09:56:03.258Z,41.26
2022-08-07T09:58:48.803Z,40.92
2022-08-07T10:01:51.375Z,40.50
2022-08-07T10:04:47.760Z,39.97
2022-08-07T10:08:03.007Z,39.91
2022-08-07T10:11:59.705Z,38.41
2022-08-07T10:14:11.364Z,38.83
2022-08-07T10:17:17.255Z,38.33
2022-08-07T10:19:53.686Z,37.96
2022-08-07T10:22:51.000Z,37.69
2022-08-07T10:25:52.917Z,37.40
2022-08-07T10:28:36.961Z,37.12
2022-08-07T10:31:31.510Z,36.49
2022-08-07T10:34:52.140Z,36.58
2022-08-07T10:38:09.904Z,36.36
2022-08-07T10:40:45.388Z,36.31
2022-08-07T10:43:34.671Z,36.03
2022-08-07T10:46:13.547Z,36.04
2022-08-07T10:48:48.876Z,35.76
2022-08-07T10:51:39.456Z,35.75
2022-08-07T10:54:53.457Z,35.51
2022-08-07T10:57:46.043Z,35.46
2022-08-07T11:00:39.164Z,35.28
2022-08-07T11:03:37.819Z,35.16
2022-08-07T11:06:23.047Z,35.07
2022-08-07T11:09:11.200Z,35.26
2022-08-07T11:11:51.831Z,34.98
2022-08-07T11:14:45.968Z,35.19
2022-08-07T11:17:42.682Z,35.09
2022-08-07T11:20:18.298Z,34.83
2022-08-07T11:22:59.692Z,35.11
2022-08-07T11:25:47.962Z,34.73
2022-08-07T11:28:30.326Z,34.92
2022-08-07T11:31:13.548Z,34.61
2022-08-07T11:34:13.028Z,34.41
2022-08-07T11:37:17.420Z,34.74
2022-08-07T11:40:04.532Z,34.28
2022-08-07T11:42:43.101Z,34.59
2022-08-07T11:45:36.490Z,34.56
2022-08-07T11:48:29.069Z,34.65
2022-08-07T11:51:41.657Z,34.52
2022-08-07T11:54:35.915Z,34.44
2022-08-07T11:57:58.026Z,34.46
2022-08-07T12:00:28.529Z,34.70
2022-08-07T12:03:45.083Z,34.44
2022-08-07T12:06:39.200Z,34.15
2022-08-07T12:09:25.063Z,34.32
2022-08-07T12:12:09.502Z,34.24
2022-08-07T12:14:52.684Z,34.46
2022-08-07T12:17:33.490Z,34.54
2022-08-07T12:20:18.540Z,34.17
2022-08-07T12:24:05.032Z,34.14
2022-08-07T12:26:29.763Z,34.12
2022-08-07T12:29:09.618Z,34.21
2022-08-07T12:31:53.272Z,34.27
2022-08-07T12:34:34.625Z,34.19
2022-08-07T12:37:11.143Z,34.41
2022-08-07T12:39:51.540Z,34.35
2022-08-07T12:42:32.058Z,34.36
2022-08-07T12:45:11.941Z,34.22
2022-08-07T12:47:50.132Z,34.19
2022-08-07T12:50:40.078Z,34.27
2022-08-07T12:54:24.269Z,34.19
2022-08-07T12:56:51.192Z,34.19
2022-08-07T12:59:33.040Z,34.24
2022-08-07T13:02:33.319Z,34.07
2022-08-07T13:06:04.997Z,34.08
2022-08-07T13:08:38.783Z,34.19
2022-08-07T13:11:09.740Z,34.11
2022-08-07T13:14:01.800Z,34.12
2022-08-07T13:16:56.432Z,34.02
2022-08-07T13:19:50.814Z,34.20
2022-08-07T13:22:32.662Z,33.98
2022-08-07T13:25:06.852Z,34.09
2022-08-07T13:28:11.369Z,34.10
2022-08-07T13:30:41.399Z,34.03
2022-08-07T13:34:30.594Z,33.86
2022-08-07T13:36:40.563Z,33.91
2022-08-07T13:39:28.377Z,33.98
2022-08-07T13:42:14.721Z,33.72
2022-08-07T13:45:20.488Z,33.83
2022-08-07T13:48:07.881Z,33.93
2022-08-07T13:50:32.719Z,33.83
2022-08-07T13:53:08.056Z,33.83
2022-08-07T13:55:54.234Z,33.82
2022-08-07T13:58:50.401Z,33.97
2022-08-07T14:01:27.489Z,33.73
2022-08-07T14:04:12.978Z,33.75
2022-08-07T14:06:50.263Z,33.75
2022-08-07T14:10:12.081Z,33.66
2022-08-07T14:12:36.207Z,33.62
2022-08-07T14:15:23.718Z,33.50
2022-08-07T14:18:27.669Z,33.58
2022-08-07T14:20:49.318Z,33.72
2022-08-07T14:23:59.167Z,33.49
2022-08-07T14:26:29.903Z,33.39
2022-08-07T14:29:10.413Z,33.43
2022-08-07T14:31:53.420Z,33.50
2022-08-07T14:34:30.337Z,33.44
2022-08-07T14:37:03.425Z,33.37
2022-08-07T14:40:16.870Z,33.27
2022-08-07T14:42:31.502Z,33.38
2022-08-07T14:45:21.310Z,33.43
2022-08-07T14:47:53.040Z,33.17
2022-08-07T14:50:28.919Z,33.36
2022-08-07T14:58:54.129Z,33.13
2022-08-07T15:04:21.870Z,33.11
2022-08-07T15:06:53.486Z,33.13
2022-08-07T15:09:59.120Z,33.02
2022-08-07T15:12:25.994Z,33.08
2022-08-07T15:15:17.359Z,33.15
2022-08-07T15:17:56.963Z,33.13
2022-08-07T15:20:35.591Z,33.17
2022-08-07T15:23:16.953Z,33.06
2022-08-07T15:25:55.663Z,32.98
2022-08-07T15:32:01.361Z,33.09
2022-08-07T15:34:15.058Z,33.00
2022-08-07T15:37:04.247Z,32.97
2022-08-07T15:39:57.163Z,32.94
2022-08-07T15:42:46.757Z,33.06
2022-08-07T15:45:25.011Z,32.98
2022-08-07T15:48:12.846Z,32.93
2022-08-07T15:53:53.301Z,32.84
2022-08-07T15:56:43.059Z,32.94
2022-08-07T15:59:20.295Z,32.78
2022-08-07T16:02:10.289Z,32.81
2022-08-07T16:04:45.409Z,32.81
2022-08-07T16:08:31.646Z,32.81
2022-08-07T16:10:16.466Z,32.72
2022-08-07T16:13:17.754Z,32.69
2022-08-07T16:16:48.417Z,32.69
2022-08-07T16:19:59.774Z,32.61
2022-08-07T16:22:54.642Z,32.56
2022-08-07T16:25:56.706Z,32.47
2022-08-07T16:30:07.885Z,32.58
2022-08-07T16:32:03.970Z,32.64
2022-08-07T16:34:48.820Z,32.64
2022-08-07T16:38:04.243Z,32.55
2022-08-07T16:41:04.286Z,32.59
2022-08-07T16:44:53.609Z,32.47
2022-08-07T16:47:45.397Z,32.51
2022-08-07T16:50:38.689Z,32.58
2022-08-07T16:54:01.942Z,32.48
2022-08-07T16:56:19.351Z,32.49
2022-08-07T16:59:44.148Z,32.43
2022-08-07T17:02:54.223Z,32.58
2022-08-07T17:06:02.060Z,32.51
2022-08-07T17:08:09.902Z,32.57
2022-08-07T17:10:54.778Z,32.48
2022-08-07T17:14:19.279Z,32.47
2022-08-07T17:16:45.242Z,32.38
2022-08-07T17:20:02.989Z,32.51
2022-08-07T17:22:45.527Z,32.65
2022-08-07T17:25:47.775Z,32.56
2022-08-07T17:28:25.301Z,32.68
2022-08-07T17:31:16.541Z,32.73
2022-08-07T17:34:15.274Z,32.65
2022-08-07T17:36:59.979Z,32.74
2022-08-07T17:40:03.337Z,32.77
2022-08-07T17:42:58.225Z,32.59
2022-08-07T17:45:35.320Z,32.63
2022-08-07T17:48:12.850Z,32.75
2022-08-07T17:51:01.638Z,32.52
2022-08-07T17:54:00.796Z,32.92
2022-08-07T17:56:36.567Z,32.95
2022-08-07T17:59:25.632Z,33.08
2022-08-07T18:02:56.544Z,32.84
2022-08-07T18:06:03.122Z,33.05
2022-08-07T18:09:01.373Z,33.17
2022-08-07T18:12:16.353Z,32.99
2022-08-07T18:14:51.127Z,33.31
2022-08-07T18:18:46.372Z,33.16
2022-08-07T18:21:12.328Z,33.07
2022-08-07T18:23:56.108Z,33.42
2022-08-07T18:27:11.483Z,33.32
2022-08-07T18:30:08.389Z,33.53
2022-08-07T18:33:12.081Z,33.52
2022-08-07T18:35:58.718Z,33.49
2022-08-07T18:38:55.037Z,33.64
2022-08-07T18:41:53.952Z,33.66
2022-08-07T18:44:31.940Z,33.79
2022-08-07T18:47:08.671Z,33.74
2022-08-07T18:50:30.761Z,33.96
2022-08-07T18:53:04.582Z,34.01
2022-08-07T18:56:16.111Z,34.01
2022-08-07T18:59:47.159Z,34.27
2022-08-07T19:02:33.160Z,34.20
2022-08-07T19:05:15.106Z,34.31
2022-08-07T19:07:57.436Z,34.39
2022-08-07T19:10:55.766Z,34.42
2022-08-07T19:13:50.051Z,34.43
2022-08-07T19:17:06.430Z,34.49
2022-08-07T19:20:28.986Z,34.63
2022-08-07T19:23:18.685Z,34.67
2022-08-07T19:26:21.587Z,34.78
2022-08-07T19:30:55.781Z,34.88
2022-08-07T19:32:08.236Z,34.96
2022-08-07T19:34:38.585Z,35.08
2022-08-07T19:37:17.264Z,35.16
2022-08-07T19:39:57.199Z,35.16
2022-08-07T19:42:30.587Z,35.32
2022-08-07T19:45:08.505Z,35.33
2022-08-07T19:47:41.957Z,35.44
2022-08-07T19:50:44.510Z,35.61
2022-08-07T19:53:00.995Z,35.68
2022-08-07T19:55:56.365Z,35.69
2022-08-07T19:58:27.983Z,35.82
2022-08-07T20:00:58.540Z,35.96
2022-08-07T20:03:33.569Z,36.05
2022-08-07T20:06:15.397Z,36.16
2022-08-07T20:09:01.789Z,36.21
2022-08-07T20:12:01.368Z,36.25
2022-08-07T20:14:31.624Z,36.40
2022-08-07T20:17:03.500Z,36.64
2022-08-07T20:19:48.219Z,36.54
2022-08-07T20:22:34.182Z,36.88
2022-08-07T20:25:19.534Z,36.93
2022-08-07T20:27:58.122Z,36.86
2022-08-07T20:30:40.248Z,36.95
2022-08-07T20:33:24.302Z,37.19
2022-08-07T20:36:07.428Z,37.23
2022-08-07T20:38:53.273Z,37.24
2022-08-07T20:41:34.030Z,37.45
2022-08-07T20:44:12.340Z,37.49
2022-08-07T20:46:43.937Z,37.55
2022-08-07T20:49:59.871Z,37.71
2022-08-07T20:52:09.331Z,37.79
2022-08-07T20:54:53.766Z,38.02
2022-08-07T20:57:25.110Z,38.03
2022-08-07T21:00:04.484Z,38.18
2022-08-07T21:03:00.775Z,38.32
2022-08-07T21:05:51.280Z,38.36
2022-08-07T21:08:39.332Z,38.51
2022-08-07T21:11:14.579Z,38.62
2022-08-07T21:14:20.237Z,38.48
2022-08-07T21:16:56.253Z,38.66
2022-08-07T21:19:51.757Z,38.91
2022-08-07T21:22:28.211Z,39.01
2022-08-07T21:25:12.094Z,39.03
2022-08-07T21:27:53.593Z,39.50
2022-08-07T21:30:26.147Z,39.31
2022-08-07T21:33:05.020Z,39.37
2022-08-07T21:36:04.999Z,39.57
2022-08-07T21:39:47.373Z,39.55
2022-08-07T21:42:41.802Z,39.69
2022-08-07T21:46:04.749Z,39.90
2022-08-07T21:48:28.905Z,39.99
2022-08-07T21:51:19.993Z,40.12
2022-08-07T21:53:55.156Z,40.24
2022-08-07T21:56:47.027Z,40.04
2022-08-07T22:00:20.444Z,40.17
2022-08-07T22:02:56.723Z,40.62
2022-08-07T22:05:45.333Z,40.61
2022-08-07T22:08:18.464Z,40.57
2022-08-07T22:10:55.203Z,40.53
2022-08-07T22:13:52.102Z,40.83
2022-08-07T22:16:42.256Z,40.89
2022-08-07T22:19:29.949Z,40.81
2022-08-07T22:22:17.947Z,41.13
2022-08-07T22:25:08.212Z,41.23
2022-08-07T22:28:07.489Z,41.38
2022-08-07T22:30:52.043Z,41.36
2022-08-07T22:33:53.037Z,41.43
2022-08-07T22:36:31.472Z,41.61
2022-08-07T22:39:05.153Z,41.65
2022-08-07T22:42:03.540Z,41.60
2022-08-07T22:44:58.238Z,41.92
2022-08-07T22:48:31.325Z,41.78
2022-08-07T22:51:04.593Z,42.11
2022-08-07T22:54:07.982Z,42.29
2022-08-07T22:56:57.730Z,42.25
2022-08-07T22:59:50.204Z,42.36
2022-08-07T23:02:31.440Z,42.59
2022-08-07T23:06:07.698Z,42.59
2022-08-07T23:10:06.414Z,42.83
2022-08-07T23:12:00.891Z,42.82
2022-08-07T23:14:49.484Z,42.83
2022-08-07T23:17:47.024Z,43.01
2022-08-07T23:20:53.143Z,43.12
2022-08-07T23:24:05.318Z,43.27
2022-08-07T23:26:57.730Z,43.31
2022-08-07T23:30:38.398Z,43.47
2022-08-07T23:34:21.804Z,43.48
2022-08-07T23:35:55.818Z,43.62
2022-08-07T23:38:47.019Z,43.84
2022-08-07T23:42:01.750Z,43.68
2022-08-07T23:45:15.377Z,43.96
2022-08-07T23:48:25.176Z,44.02
2022-08-07T23:52:53.471Z,44.01
2022-08-07T23:54:04.802Z,44.09
2022-08-07T23:56:53.816Z,44.01
